Data for 01/26/2009

Time Sea-Level Adjusted Pressure Absolute Pressure Temperature Relative Humidity Dew Point   
(mb) (inHg) (mb) (inHg) (C) (F) (%) (C) (F)
00:05 1018 30.06 847 25.01 -20.5 -4.8 78 -23.3 -10
00:10 1018 30.06 847 25.01 -20.4 -4.8 78 -23.4 -10.1
00:15 1018 30.06 847 25.01 -20.5 -4.8 78 -23.4 -10.1
00:20 1018 30.06 847 25.01 -20.4 -4.8 78 -23.3 -10
00:25 1018 30.06 847 25.01 -20.3 -4.5 78 -23.2 -9.8
00:30 1018 30.06 847 25.01 -20.3 -4.5 77 -23.3 -9.9
00:35 1018 30.06 847 25.01 -20.2 -4.3 78 -23.1 -9.5
00:40 1018 30.06 847 25.01 -20 -4 77 -23 -9.4
00:45 1018 30.06 847 25.01 -19.9 -3.9 78 -22.8 -9.1
00:50 1018 30.06 847 25.01 -19.9 -3.8 79 -22.7 -8.9
00:55 1018 30.06 848 25.04 -19.8 -3.7 78 -22.7 -8.9
01:00 1018 30.06 848 25.04 -19.8 -3.6 78 -22.6 -8.7
01:05 1018 30.06 848 25.04 -19.7 -3.4 79 -22.5 -8.5
01:10 1018 30.06 848 25.04 -19.7 -3.4 79 -22.5 -8.4
01:15 1018 30.06 848 25.04 -19.6 -3.2 78 -22.5 -8.5
01:20 1018 30.06 848 25.04 -19.6 -3.3 78 -22.6 -8.7
01:25 1018 30.06 848 25.04 -19.7 -3.5 79 -22.5 -8.5
01:30 1018 30.06 848 25.04 -19.7 -3.5 79 -22.5 -8.5
01:35 1018 30.06 848 25.04 -19.7 -3.5 78 -22.6 -8.7
01:40 1018 30.06 848 25.04 -19.8 -3.7 79 -22.5 -8.6
01:45 1018 30.06 848 25.04 -19.9 -3.7 80 -22.4 -8.4
01:50 1018 30.06 847 25.01 -20 -4.1 80 -22.6 -8.7
01:55 1018 30.06 848 25.04 -20.1 -4.2 80 -22.7 -8.9
02:00 1018 30.06 848 25.04 -20.1 -4.2 79 -22.8 -9.1
02:05 1018 30.06 848 25.04 -20 -4.1 78 -22.9 -9.2
02:10 1019 30.09 848 25.04 -20.1 -4.1 78 -22.9 -9.2
02:15 1019 30.09 848 25.04 -20.1 -4.1 79 -22.8 -9.1
02:20 1019 30.09 848 25.04 -20.1 -4.1 79 -22.8 -9.1
02:25 1019 30.09 848 25.04 -20 -3.9 79 -22.8 -9
02:30 1019 30.09 848 25.04 -19.9 -3.9 79 -22.7 -8.9
02:35 1019 30.09 848 25.04 -19.9 -3.8 79 -22.6 -8.7
02:40 1019 30.09 848 25.04 -19.9 -3.8 79 -22.7 -8.8
02:45 1019 30.09 848 25.04 -19.9 -3.7 80 -22.5 -8.6
02:50 1018 30.06 848 25.04 -19.9 -3.8 79 -22.7 -8.8
02:55 1018 30.06 848 25.04 -19.9 -3.7 79 -22.6 -8.7
03:00 1019 30.09 848 25.04 -19.8 -3.7 80 -22.5 -8.5
03:05 1019 30.09 848 25.04 -20 -4 80 -22.7 -8.8
03:10 1019 30.09 848 25.04 -20.1 -4.1 82 -22.5 -8.5
03:15 1019 30.09 848 25.04 -20.1 -4.2 81 -22.6 -8.7
03:20 1019 30.09 848 25.04 -20.1 -4.3 81 -22.7 -8.8
03:25 1019 30.09 848 25.04 -20.2 -4.3 80 -22.7 -8.9
03:30 1018 30.06 848 25.04 -20.3 -4.5 80 -22.8 -9
03:35 1018 30.06 848 25.04 -20.4 -4.7 81 -22.9 -9.2
03:40 1019 30.09 848 25.04 -20.4 -4.6 80 -23 -9.3
03:45 1018 30.06 848 25.04 -20.4 -4.7 80 -23 -9.5
03:50 1019 30.09 848 25.04 -20.5 -4.9 81 -23 -9.4
03:55 1019 30.09 848 25.04 -20.5 -4.9 80 -23.2 -9.7
04:00 1019 30.09 848 25.04 -20.5 -5 80 -23.1 -9.6
04:05 1019 30.09 848 25.04 -20.3 -4.6 79 -23 -9.5
04:10 1019 30.09 848 25.04 -20.3 -4.5 80 -23 -9.3
04:15 1019 30.09 848 25.04 -20.2 -4.4 79 -22.9 -9.3
04:20 1019 30.09 848 25.04 -20.2 -4.3 79 -23 -9.3
04:25 1019 30.09 848 25.04 -20.2 -4.3 80 -22.7 -8.9
04:30 1019 30.09 848 25.04 -20.1 -4.2 80 -22.8 -9
04:35 1019 30.09 848 25.04 -20 -4.1 80 -22.7 -8.9
04:40 1019 30.09 848 25.04 -19.9 -3.8 79 -22.6 -8.7
04:45 1019 30.09 848 25.04 -19.9 -3.8 80 -22.5 -8.5
04:50 1019 30.09 848 25.04 -19.9 -3.8 81 -22.4 -8.4
04:55 1019 30.09 848 25.04 -20 -3.9 81 -22.4 -8.4
05:00 1019 30.09 848 25.04 -20.1 -4.2 82 -22.4 -8.3
05:05 1019 30.09 848 25.04 -20 -4 82 -22.4 -8.3
05:10 1019 30.09 848 25.04 -20 -4 81 -22.4 -8.4
05:15 1019 30.09 848 25.04 -19.9 -3.8 81 -22.4 -8.3
05:20 1019 30.09 848 25.04 -19.8 -3.6 81 -22.2 -8
05:25 1019 30.09 848 25.04 -19.6 -3.2 81 -22.1 -7.8
05:30 1019 30.09 848 25.04 -19.7 -3.4 82 -22 -7.7
05:35 1019 30.09 848 25.04 -19.6 -3.2 81 -22.1 -7.8
05:40 1019 30.09 848 25.04 -19.5 -3.1 81 -22 -7.5
05:45 1019 30.09 848 25.04 -19.6 -3.4 82 -22 -7.7
05:50 1019 30.09 848 25.04 -19.8 -3.6 81 -22.3 -8.1
05:55 1019 30.09 848 25.04 -20 -4 82 -22.3 -8.2
06:00 1019 30.09 848 25.04 -20.1 -4.1 82 -22.4 -8.4
06:05 1019 30.09 848 25.04 -20.1 -4.2 82 -22.4 -8.3
06:10 1019 30.09 848 25.04 -19.9 -3.9 81 -22.4 -8.3
06:15 1019 30.09 848 25.04 -20 -3.9 82 -22.2 -8
06:20 1019 30.09 848 25.04 -20 -4 82 -22.3 -8.2
06:25 1019 30.09 848 25.04 -19.9 -3.8 82 -22.2 -8
06:30 1019 30.09 848 25.04 -19.9 -3.7 82 -22.2 -8
06:35 1019 30.09 848 25.04 -19.9 -3.8 82 -22.2 -8
06:40 1019 30.09 848 25.04 -20 -4 82 -22.3 -8.2
06:45 1019 30.09 848 25.04 -20.1 -4.1 82 -22.3 -8.2
06:50 1019 30.09 848 25.04 -19.9 -3.9 82 -22.3 -8.1
06:55 1019 30.09 848 25.04 -19.8 -3.6 81 -22.2 -8
07:00 1019 30.09 848 25.04 -19.8 -3.7 81 -22.2 -8
07:05 1019 30.09 848 25.04 -19.9 -3.9 82 -22.2 -8
07:10 1019 30.09 848 25.04 -20 -4 83 -22.3 -8.1
07:15 1019 30.09 848 25.04 -20 -3.9 82 -22.3 -8.1
07:20 1019 30.09 848 25.04 -19.9 -3.8 83 -22.2 -7.9
07:25 1019 30.09 848 25.04 -19.9 -3.7 83 -22.1 -7.7
07:30 1019 30.09 848 25.04 -19.8 -3.7 83 -22.1 -7.8
07:35 1019 30.09 849 25.07 -19.8 -3.7 82 -22.1 -7.8
07:40 1019 30.09 849 25.07 -19.9 -3.7 82 -22.1 -7.8
07:45 1019 30.09 849 25.07 -19.9 -3.8 82 -22.2 -7.9
07:50 1019 30.09 849 25.07 -19.9 -3.8 83 -22.1 -7.8
07:55 1020 30.12 849 25.07 -19.9 -3.9 83 -22.1 -7.8
08:00 1020 30.12 849 25.07 -19.9 -3.9 82 -22.2 -8
08:05 1020 30.12 849 25.07 -19.9 -3.9 82 -22.3 -8.1
08:10 1020 30.12 849 25.07 -20.1 -4.1 82 -22.4 -8.2
08:15 1020 30.12 849 25.07 -20.2 -4.4 84 -22.3 -8.1
08:20 1020 30.12 849 25.07 -20 -3.9 83 -22.2 -7.9
08:25 1020 30.12 849 25.07 -19.7 -3.4 82 -22.1 -7.7
08:30 1020 30.12 849 25.07 -19.5 -3.1 81 -22 -7.7
08:35 1020 30.12 849 25.07 -19.4 -2.9 78 -22.3 -8.2
08:40 1020 30.12 849 25.07 -19.9 -3.9 79 -22.7 -8.8
08:45 1020 30.12 849 25.07 -20.5 -4.9 81 -23 -9.4
08:50 1020 30.12 849 25.07 -20.6 -5.1 81 -23 -9.5
08:55 1020 30.12 850 25.1 -20.8 -5.4 81 -23.2 -9.8
09:00 1020 30.12 850 25.1 -20.7 -5.3 82 -23.1 -9.5
09:05 1020 30.12 850 25.1 -20.4 -4.8 80 -23 -9.4
09:10 1020 30.12 850 25.1 -20.5 -4.8 82 -22.8 -9.1
09:15 1021 30.15 850 25.1 -20.4 -4.7 80 -22.9 -9.3
09:20 1021 30.15 850 25.1 -20.1 -4.1 79 -22.9 -9.1
09:25 1021 30.15 850 25.1 -20 -3.9 79 -22.7 -8.8
09:30 1021 30.15 850 25.1 -19.6 -3.3 77 -22.7 -8.8
09:35 1021 30.15 850 25.1 -19.9 -3.8 79 -22.7 -8.8
09:40 1021 30.15 850 25.1 -20.1 -4.1 79 -22.8 -9.1
09:45 1021 30.15 850 25.1 -20.1 -4.2 79 -22.9 -9.2
09:50 1021 30.15 850 25.1 -19.8 -3.6 77 -22.8 -9
09:55 1021 30.15 850 25.1 -19.8 -3.7 80 -22.5 -8.4
10:00 1021 30.15 850 25.1 -19.6 -3.2 79 -22.3 -8.2
10:05 1021 30.15 850 25.1 -19.2 -2.6 78 -22.1 -7.8
10:10 1021 30.15 850 25.1 -19.2 -2.5 77 -22.2 -8
10:15 1021 30.15 850 25.1 -19.5 -3.1 79 -22.2 -8
10:20 1021 30.15 850 25.1 -20.1 -4.2 82 -22.4 -8.4
10:25 1021 30.15 850 25.1 -19.7 -3.5 80 -22.4 -8.3
10:30 1021 30.15 850 25.1 -19.2 -2.5 78 -22.1 -7.8
10:35 1021 30.15 850 25.1 -18.6 -1.6 76 -21.8 -7.3
10:40 1021 30.15 850 25.1 -18.4 -1.2 75 -21.9 -7.4
10:45 1021 30.15 850 25.1 -18.2 -0.7 73 -21.9 -7.4
10:50 1021 30.15 850 25.1 -17.9 -0.3 72 -21.8 -7.2
10:55 1021 30.15 850 25.1 -18.2 -0.7 74 -21.8 -7.3
11:00 1021 30.15 850 25.1 -18.3 -1 75 -21.8 -7.2
11:05 1021 30.15 850 25.1 -18.6 -1.5 75 -22 -7.6
11:10 1021 30.15 850 25.1 -18.2 -0.7 74 -21.8 -7.2
11:15 1021 30.15 850 25.1 -18 -0.4 74 -21.7 -7
11:20 1021 30.15 850 25.1 -17.6 0.3 72 -21.5 -6.7
11:25 1021 30.15 850 25.1 -17.1 1.2 70 -21.4 -6.5
11:30 1021 30.15 850 25.1 -16.9 1.6 69 -21.3 -6.4
11:35 1021 30.15 850 25.1 -16.8 1.8 67 -21.5 -6.7
11:40 1021 30.15 850 25.1 -17 1.5 70 -21.2 -6.2
11:45 1021 30.15 850 25.1 -16.8 1.8 68 -21.3 -6.4
11:50 1021 30.15 850 25.1 -17.3 0.9 69 -21.6 -6.8
11:55 1021 30.15 850 25.1 -17.2 1 69 -21.7 -7
12:00 1021 30.15 850 25.1 -17.2 1.1 68 -21.7 -7.1
12:05 1021 30.15 850 25.1 -17.2 1 70 -21.5 -6.8
12:10 1021 30.15 850 25.1 -16.6 2.1 68 -21.2 -6.1
12:15 1021 30.15 850 25.1 -16.2 2.8 67 -21.1 -6
12:20 1021 30.15 850 25.1 -16.1 3 64 -21.5 -6.7
12:25 1021 30.15 850 25.1 -15.8 3.5 63 -21.4 -6.5
12:30 1021 30.15 850 25.1 -16.6 2.1 66 -21.6 -6.9
12:35 1021 30.15 850 25.1 -16.6 2.1 65 -21.7 -7.1
12:40 1021 30.15 850 25.1 -16.4 2.5 64 -21.6 -6.9
12:45 1020 30.12 850 25.1 -16.5 2.4 63 -22 -7.6
12:50 1020 30.12 850 25.1 -16.5 2.2 59 -22.8 -9
12:55 1020 30.12 850 25.1 -16.3 2.6 60 -22.4 -8.3
13:00 1020 30.12 850 25.1 -15.6 3.9 59 -21.9 -7.4
13:05 1020 30.12 850 25.1 -15.4 4.4 58 -21.8 -7.3
13:10 1020 30.12 850 25.1 -15.5 4.1 56 -22.4 -8.4
13:15 1020 30.12 850 25.1 -15.4 4.4 52 -23.1 -9.6
13:20 1020 30.12 850 25.1 -15.5 4.2 54 -22.8 -9
13:25 1020 30.12 850 25.1 -15 5 55 -22.2 -8
13:30 1020 30.12 850 25.1 -15.2 4.7 52 -23 -9.4
13:35 1020 30.12 850 25.1 -15.5 4.1 54 -22.9 -9.2
13:40 1020 30.12 850 25.1 -15.8 3.6 54 -23.1 -9.6
13:45 1020 30.12 849 25.07 -15.6 3.9 53 -23.1 -9.6
13:50 1020 30.12 849 25.07 -15.6 3.8 51 -23.6 -10.4
13:55 1020 30.12 849 25.07 -15.4 4.4 51 -23.3 -10
14:00 1020 30.12 849 25.07 -15.8 3.5 54 -23 -9.5
14:05 1020 30.12 849 25.07 -16.3 2.6 56 -23.1 -9.7
14:10 1020 30.12 849 25.07 -15.8 3.5 55 -23 -9.4
14:15 1020 30.12 849 25.07 -15.7 3.8 54 -23 -9.3
14:20 1020 30.12 849 25.07 -16.2 2.8 55 -23.3 -10
14:25 1020 30.12 849 25.07 -16.1 2.9 56 -23 -9.3
14:30 1020 30.12 849 25.07 -15.9 3.4 56 -22.9 -9.2
14:35 1020 30.12 849 25.07 -15.8 3.5 55 -23 -9.4
14:40 1020 30.12 849 25.07 -15.7 3.7 53 -23.2 -9.8
14:45 1020 30.12 849 25.07 -15.7 3.7 56 -22.6 -8.7
14:50 1020 30.12 849 25.07 -15.5 4.2 54 -22.8 -9.1
14:55 1020 30.12 849 25.07 -15.2 4.6 53 -22.8 -9.1
15:00 1020 30.12 849 25.07 -15.3 4.5 55 -22.5 -8.5
15:05 1020 30.12 849 25.07 -15.5 4 55 -22.7 -8.8
15:10 1020 30.12 849 25.07 -15.4 4.2 54 -22.8 -9
15:15 1020 30.12 849 25.07 -15.4 4.3 54 -22.7 -8.9
15:20 1020 30.12 849 25.07 -15.4 4.3 54 -22.8 -9
15:25 1020 30.12 849 25.07 -15.4 4.2 53 -22.9 -9.2
15:30 1020 30.12 849 25.07 -15.3 4.5 54 -22.6 -8.6
15:35 1020 30.12 849 25.07 -15.3 4.6 53 -22.9 -9.1
15:40 1020 30.12 849 25.07 -15.1 4.8 53 -22.7 -8.8
15:45 1020 30.12 850 25.1 -15.3 4.5 53 -22.8 -9
15:50 1020 30.12 850 25.1 -15.4 4.2 54 -22.7 -8.9
15:55 1020 30.12 850 25.1 -15.2 4.6 53 -22.7 -8.8
16:00 1020 30.12 850 25.1 -15 5 52 -22.8 -9
16:05 1020 30.12 850 25.1 -15.2 4.6 52 -23 -9.4
16:10 1021 30.15 850 25.1 -15.5 4.2 52 -23.3 -10
16:15 1020 30.12 850 25.1 -15.1 4.8 51 -23.1 -9.6
16:20 1020 30.12 850 25.1 -15.2 4.7 52 -23 -9.5
16:25 1020 30.12 850 25.1 -15.3 4.6 52 -23 -9.3
16:30 1020 30.12 850 25.1 -15 5 52 -22.9 -9.2
16:35 1020 30.12 850 25.1 -15.1 4.8 52 -22.8 -9.1
16:40 1020 30.12 850 25.1 -15.3 4.5 53 -22.9 -9.3
16:45 1020 30.12 850 25.1 -15.4 4.3 54 -22.8 -9
16:50 1020 30.12 850 25.1 -15.5 4.1 52 -23.2 -9.7
16:55 1020 30.12 850 25.1 -15.6 3.9 54 -22.9 -9.3
17:00 1020 30.12 850 25.1 -16 3.1 56 -23 -9.4
17:05 1020 30.12 850 25.1 -16.4 2.5 56 -23.3 -9.9
17:10 1020 30.12 850 25.1 -16.9 1.7 57 -23.5 -10.2
17:15 1020 30.12 850 25.1 -16.9 1.6 59 -23.2 -9.7
17:20 1020 30.12 850 25.1 -17.1 1.2 61 -22.9 -9.2
17:25 1020 30.12 850 25.1 -17.2 1 62 -22.9 -9.3
17:30 1020 30.12 850 25.1 -17.3 0.9 61 -23.1 -9.6
17:35 1020 30.12 850 25.1 -17.3 0.9 63 -22.7 -8.9
17:40 1020 30.12 850 25.1 -17.4 0.7 63 -22.9 -9.2
17:45 1020 30.12 850 25.1 -17.6 0.4 64 -22.8 -9
17:50 1020 30.12 850 25.1 -18.1 -0.5 68 -22.7 -8.9
17:55 1020 30.12 850 25.1 -18.4 -1.1 69 -22.7 -8.9
18:00 1020 30.12 850 25.1 -18.8 -1.8 69 -23.1 -9.6
18:05 1021 30.15 850 25.1 -18.8 -1.9 68 -23.3 -10
18:10 1021 30.15 850 25.1 -18.8 -1.9 69 -23.1 -9.6
18:15 1021 30.15 850 25.1 -18.8 -1.8 67 -23.4 -10.1
18:20 1021 30.15 850 25.1 -18.7 -1.7 67 -23.3 -10
18:25 1021 30.15 850 25.1 -18.9 -2.1 71 -23 -9.4
18:30 1021 30.15 850 25.1 -19.5 -3.1 73 -23.2 -9.8
18:35 1021 30.15 850 25.1 -19.9 -3.8 72 -23.7 -10.7
18:40 1021 30.15 850 25.1 -19.9 -3.9 71 -23.9 -11
18:45 1021 30.15 850 25.1 -19.9 -3.7 71 -23.9 -11.1
18:50 1021 30.15 850 25.1 -20 -4 71 -23.9 -11.1
18:55 1021 30.15 850 25.1 -20.1 -4.1 71 -24 -11.2
19:00 1021 30.15 850 25.1 -20.5 -4.8 72 -24.2 -11.6
19:05 1021 30.15 850 25.1 -20.6 -5.1 73 -24.3 -11.7
19:10 1021 30.15 850 25.1 -20.6 -5.1 73 -24.3 -11.8
19:15 1021 30.15 850 25.1 -20.7 -5.3 74 -24.3 -11.7
19:20 1021 30.15 850 25.1 -20.9 -5.5 74 -24.4 -11.9
19:25 1021 30.15 850 25.1 -20.8 -5.5 73 -24.4 -12
19:30 1021 30.15 850 25.1 -20.8 -5.5 73 -24.4 -12
19:35 1021 30.15 850 25.1 -20.8 -5.4 73 -24.4 -12
19:40 1021 30.15 850 25.1 -20.5 -4.9 73 -24.2 -11.6
19:45 1021 30.15 850 25.1 -20.1 -4.2 71 -24.1 -11.4
19:50 1021 30.15 851 25.13 -20.2 -4.4 72 -24 -11.2
19:55 1021 30.15 851 25.13 -20.7 -5.2 73 -24.3 -11.7
20:00 1021 30.15 851 25.13 -20.8 -5.5 75 -24.1 -11.5
20:05 1021 30.15 851 25.13 -20.9 -5.7 74 -24.5 -12.1
20:10 1021 30.15 851 25.13 -21.2 -6.2 76 -24.4 -11.9
20:15 1021 30.15 851 25.13 -21.5 -6.8 79 -24.2 -11.6
20:20 1022 30.18 851 25.13 -21.4 -6.6 75 -24.7 -12.5
20:25 1022 30.18 851 25.13 -22.2 -8 78 -25.2 -13.3
20:30 1022 30.18 851 25.13 -22.5 -8.4 78 -25.4 -13.6
20:35 1022 30.18 851 25.13 -22.2 -7.9 76 -25.3 -13.5
20:40 1022 30.18 851 25.13 -22.1 -7.9 76 -25.3 -13.5
20:45 1022 30.18 851 25.13 -22.4 -8.3 78 -25.3 -13.5
20:50 1022 30.18 851 25.13 -22.1 -7.8 75 -25.4 -13.7
20:55 1022 30.18 851 25.13 -21.8 -7.3 77 -24.9 -12.8
21:00 1022 30.18 851 25.13 -21.7 -7.1 76 -24.9 -12.8
21:05 1021 30.15 851 25.13 -22 -7.6 75 -25.3 -13.5
21:10 1022 30.18 851 25.13 -22 -7.6 78 -25 -12.9
21:15 1022 30.18 851 25.13 -21.8 -7.3 74 -25.3 -13.5
21:20 1022 30.18 851 25.13 -22 -7.6 73 -25.5 -14
21:25 1021 30.15 851 25.13 -22.1 -7.8 74 -25.5 -13.9
21:30 1021 30.15 851 25.13 -21.2 -6.2 72 -25 -13.1
21:35 1021 30.15 851 25.13 -21.2 -6.1 72 -25 -13
21:40 1021 30.15 851 25.13 -21.3 -6.3 71 -25.2 -13.3
21:45 1021 30.15 851 25.13 -21.4 -6.5 73 -25.1 -13.1
21:50 1021 30.15 851 25.13 -21.8 -7.2 73 -25.3 -13.6
21:55 1021 30.15 850 25.1 -21.7 -7 72 -25.4 -13.7
22:00 1021 30.15 850 25.1 -21.6 -6.9 72 -25.5 -13.8
22:05 1021 30.15 850 25.1 -22 -7.6 73 -25.7 -14.2
22:10 1021 30.15 850 25.1 -22.2 -8 74 -25.6 -14.2
22:15 1021 30.15 850 25.1 -21.9 -7.5 73 -25.5 -13.9
22:20 1021 30.15 850 25.1 -21.9 -7.5 73 -25.5 -13.9
22:25 1021 30.15 850 25.1 -22 -7.5 74 -25.5 -13.9
22:30 1021 30.15 850 25.1 -21.9 -7.4 74 -25.4 -13.8
22:35 1021 30.15 850 25.1 -21.3 -6.3 71 -25.2 -13.4
22:40 1021 30.15 850 25.1 -20.9 -5.6 70 -25.1 -13.1
22:45 1021 30.15 850 25.1 -21.4 -6.5 72 -25.3 -13.5
22:50 1021 30.15 850 25.1 -21.9 -7.5 73 -25.6 -14.1
22:55 1021 30.15 850 25.1 -22.2 -8 73 -25.8 -14.4
23:00 1021 30.15 850 25.1 -22.1 -7.7 73 -25.7 -14.3
23:05 1021 30.15 850 25.1 -21.5 -6.8 72 -25.3 -13.6
23:10 1021 30.15 850 25.1 -21.5 -6.7 74 -25 -13
23:15 1021 30.15 850 25.1 -21.2 -6.1 72 -25 -13
23:20 1021 30.15 850 25.1 -21.2 -6.2 71 -25.1 -13.2
23:25 1021 30.15 850 25.1 -21.5 -6.7 71 -25.4 -13.8
23:30 1021 30.15 850 25.1 -22 -7.5 73 -25.6 -14.1
23:35 1021 30.15 850 25.1 -22 -7.6 75 -25.4 -13.6
23:40 1021 30.15 850 25.1 -21.6 -6.9 73 -25.3 -13.5
23:45 1021 30.15 850 25.1 -21.6 -6.9 72 -25.4 -13.7
23:50 1021 30.15 850 25.1 -21.8 -7.2 73 -25.5 -13.8
23:55 1021 30.15 850 25.1 -21.6 -6.8 73 -25.3 -13.5
24:00 1021 30.15 850 25.1 -21.5 -6.7 73 -25.1 -13.2